createdAt,value
2023-01-28T00:00:47.765Z,159.30
2023-01-28T00:01:47.771Z,157.95
2023-01-28T00:02:47.753Z,158.94
2023-01-28T00:03:47.741Z,157.44
2023-01-28T00:04:47.690Z,160.12
2023-01-28T00:05:47.642Z,157.72
2023-01-28T00:06:47.663Z,159.24
2023-01-28T00:07:47.615Z,158.53
2023-01-28T00:08:47.608Z,162.16
2023-01-28T00:09:47.563Z,161.41
2023-01-28T00:10:47.525Z,161.55
2023-01-28T00:11:47.518Z,161.41
2023-01-28T00:12:47.494Z,162.75
2023-01-28T00:13:47.495Z,160.59
2023-01-28T00:14:47.446Z,162.75
2023-01-28T00:15:47.409Z,161.94
2023-01-28T00:16:47.374Z,162.85
2023-01-28T00:17:47.352Z,163.06
2023-01-28T00:18:47.326Z,163.35
2023-01-28T00:19:47.313Z,163.27
2023-01-28T00:20:47.296Z,162.02
2023-01-28T00:21:47.281Z,164.24
2023-01-28T00:22:47.243Z,164.80
2023-01-28T00:23:47.254Z,161.35
2023-01-28T00:24:47.179Z,163.14
2023-01-28T00:25:47.158Z,160.16
2023-01-28T00:26:47.120Z,162.25
2023-01-28T00:27:47.118Z,165.21
2023-01-28T00:28:47.093Z,165.40
2023-01-28T00:29:47.075Z,162.87
2023-01-28T00:30:47.045Z,162.26
2023-01-28T00:31:47.004Z,165.42
2023-01-28T00:32:46.993Z,163.87
2023-01-28T00:33:46.938Z,166.46
2023-01-28T00:34:46.911Z,163.86
2023-01-28T00:35:46.966Z,164.09
2023-01-28T00:36:46.886Z,164.44
2023-01-28T00:37:46.875Z,164.65
2023-01-28T00:38:46.834Z,164.58
2023-01-28T00:39:46.837Z,164.84
2023-01-28T00:40:46.855Z,165.29
2023-01-28T00:41:46.794Z,161.49
2023-01-28T00:42:46.793Z,168.60
2023-01-28T00:43:46.761Z,164.83
2023-01-28T00:44:46.758Z,164.36
2023-01-28T00:45:48.563Z,165.15
2023-01-28T00:46:46.720Z,169.87
2023-01-28T00:47:46.683Z,169.43
2023-01-28T00:48:46.699Z,167.82
2023-01-28T00:49:46.643Z,165.81
2023-01-28T00:50:46.647Z,166.34
2023-01-28T00:51:46.610Z,167.38
2023-01-28T00:52:46.566Z,167.89
2023-01-28T00:53:46.552Z,169.77
2023-01-28T00:54:46.520Z,169.48
2023-01-28T00:55:46.531Z,167.83
2023-01-28T00:56:46.484Z,169.84
2023-01-28T00:57:46.480Z,167.60
2023-01-28T00:58:46.481Z,167.80
2023-01-28T00:59:46.447Z,169.17
2023-01-28T01:00:46.458Z,169.12
2023-01-28T01:01:46.459Z,167.06
2023-01-28T01:02:46.424Z,166.88
2023-01-28T01:03:46.370Z,167.11
2023-01-28T01:04:46.334Z,170.01
2023-01-28T01:05:46.331Z,167.70
2023-01-28T01:06:46.295Z,170.45
2023-01-28T01:07:46.287Z,166.87
2023-01-28T01:08:46.257Z,167.65
2023-01-28T01:09:46.226Z,170.44
2023-01-28T01:10:46.226Z,169.77
2023-01-28T01:11:46.173Z,169.92
2023-01-28T01:12:46.186Z,170.81
2023-01-28T01:13:46.127Z,171.60
2023-01-28T01:14:46.124Z,171.19
2023-01-28T01:15:46.145Z,168.67
2023-01-28T01:16:46.097Z,168.61
2023-01-28T01:17:46.085Z,171.56
2023-01-28T01:18:46.055Z,172.04
2023-01-28T01:19:46.057Z,171.77
2023-01-28T01:20:46.043Z,171.32
2023-01-28T01:21:46.036Z,170.52
2023-01-28T01:22:45.980Z,171.70
2023-01-28T01:23:45.985Z,169.91
2023-01-28T01:24:45.942Z,171.71
2023-01-28T01:25:45.943Z,171.34
2023-01-28T01:26:45.906Z,172.77
2023-01-28T01:27:45.916Z,170.89
2023-01-28T01:28:45.861Z,171.30
2023-01-28T01:29:45.833Z,173.66
2023-01-28T01:30:45.856Z,169.66
2023-01-28T01:31:45.875Z,172.40
2023-01-28T01:32:45.770Z,171.29
2023-01-28T01:33:45.760Z,172.32
2023-01-28T01:34:45.752Z,170.82
2023-01-28T01:35:45.757Z,171.67
2023-01-28T01:36:45.714Z,170.19
2023-01-28T01:37:45.676Z,172.40
2023-01-28T01:38:45.660Z,173.57
2023-01-28T01:39:45.670Z,172.79
2023-01-28T01:40:45.618Z,169.69
2023-01-28T01:41:45.589Z,173.10
2023-01-28T01:42:45.584Z,173.76
2023-01-28T01:43:45.560Z,173.16
2023-01-28T01:44:45.555Z,173.11
2023-01-28T01:45:45.602Z,172.02
2023-01-28T01:46:45.529Z,172.91
2023-01-28T01:47:45.480Z,172.28
2023-01-28T01:48:45.462Z,173.54
2023-01-28T01:49:45.445Z,173.49
2023-01-28T01:50:45.406Z,171.83
2023-01-28T01:51:45.404Z,172.80
2023-01-28T01:52:45.391Z,173.27
2023-01-28T01:53:45.351Z,173.90
2023-01-28T01:54:45.356Z,173.69
2023-01-28T01:55:45.299Z,172.92
2023-01-28T01:56:45.273Z,173.61
2023-01-28T01:57:45.283Z,172.39
2023-01-28T01:58:45.241Z,172.15
2023-01-28T01:59:45.241Z,174.40
2023-01-28T02:00:45.187Z,175.53
2023-01-28T02:01:45.208Z,172.90
2023-01-28T02:02:45.180Z,172.50
2023-01-28T02:03:45.114Z,171.89
2023-01-28T02:04:45.151Z,171.53
2023-01-28T02:05:45.081Z,173.28
2023-01-28T02:06:45.087Z,175.43
2023-01-28T02:07:45.045Z,174.14
2023-01-28T02:08:45.042Z,177.85
2023-01-28T02:09:45.155Z,174.05
2023-01-28T02:10:44.988Z,174.40
2023-01-28T02:11:44.965Z,172.18
2023-01-28T02:12:44.961Z,175.93
2023-01-28T02:13:44.948Z,173.38
2023-01-28T02:14:44.936Z,173.57
2023-01-28T02:15:44.900Z,174.36
2023-01-28T02:16:44.977Z,173.49
2023-01-28T02:17:44.869Z,175.04
2023-01-28T02:18:44.856Z,177.09
2023-01-28T02:19:44.808Z,174.05
2023-01-28T02:20:44.814Z,175.01
2023-01-28T02:21:44.859Z,175.93
2023-01-28T02:22:44.765Z,173.63
2023-01-28T02:23:44.736Z,175.29
2023-01-28T02:24:44.758Z,174.63
2023-01-28T02:25:44.707Z,177.65
2023-01-28T02:26:44.739Z,172.56
2023-01-28T02:27:44.707Z,176.56
2023-01-28T02:28:44.698Z,173.83
2023-01-28T02:29:44.698Z,173.43
2023-01-28T02:30:44.749Z,175.22
2023-01-28T02:31:44.714Z,174.94
2023-01-28T02:32:44.603Z,173.12
2023-01-28T02:33:44.645Z,174.00
2023-01-28T02:34:44.546Z,175.52
2023-01-28T02:35:44.503Z,174.77
2023-01-28T02:36:44.509Z,174.08
2023-01-28T02:37:44.506Z,173.59
2023-01-28T02:38:44.454Z,176.42
2023-01-28T02:39:44.424Z,172.22
2023-01-28T02:40:44.425Z,175.24
2023-01-28T02:41:44.389Z,175.00
2023-01-28T02:42:44.403Z,176.41
2023-01-28T02:43:44.357Z,174.04
2023-01-28T02:44:44.309Z,174.87
2023-01-28T02:45:44.286Z,176.02
2023-01-28T02:46:44.283Z,175.13
2023-01-28T02:47:44.282Z,174.56
2023-01-28T02:48:44.217Z,176.56
2023-01-28T02:49:44.224Z,173.59
2023-01-28T02:50:44.173Z,171.19
2023-01-28T02:51:44.147Z,174.91
2023-01-28T02:52:44.136Z,172.82
2023-01-28T02:53:44.227Z,177.57
2023-01-28T02:54:44.108Z,174.03
2023-01-28T02:55:44.926Z,175.99
2023-01-28T02:56:44.060Z,178.09
2023-01-28T02:57:44.061Z,176.67
2023-01-28T02:58:44.040Z,173.29
2023-01-28T02:59:44.000Z,176.04
2023-01-28T03:00:43.972Z,175.96
2023-01-28T03:01:43.995Z,174.52
2023-01-28T03:02:43.965Z,176.90
2023-01-28T03:03:43.951Z,173.04
2023-01-28T03:04:43.895Z,176.20
2023-01-28T03:05:43.863Z,174.19
2023-01-28T03:06:43.867Z,176.12
2023-01-28T03:07:43.923Z,176.42
2023-01-28T03:08:43.814Z,177.99
2023-01-28T03:09:43.805Z,176.03
2023-01-28T03:10:43.796Z,175.37
2023-01-28T03:11:43.777Z,175.09
2023-01-28T03:12:43.752Z,177.31
2023-01-28T03:13:43.718Z,174.10
2023-01-28T03:14:43.716Z,175.65
2023-01-28T03:15:43.681Z,176.15
2023-01-28T03:16:43.663Z,178.73
2023-01-28T03:17:43.627Z,178.69
2023-01-28T03:18:43.655Z,177.38
2023-01-28T03:19:43.606Z,174.84
2023-01-28T03:20:43.592Z,175.16
2023-01-28T03:21:43.547Z,175.81
2023-01-28T03:22:43.528Z,175.98
2023-01-28T03:23:43.539Z,174.14
2023-01-28T03:24:43.484Z,176.88
2023-01-28T03:25:43.471Z,177.74
2023-01-28T03:26:43.447Z,175.66
2023-01-28T03:27:43.439Z,176.67
2023-01-28T03:28:43.437Z,176.19
2023-01-28T03:29:43.395Z,176.02
2023-01-28T03:30:43.425Z,176.17
2023-01-28T03:31:43.321Z,175.44
2023-01-28T03:32:43.317Z,175.93
2023-01-28T03:33:43.316Z,176.33
2023-01-28T03:34:43.273Z,175.12
2023-01-28T03:35:43.243Z,174.19
2023-01-28T03:36:43.230Z,175.41
2023-01-28T03:37:43.228Z,177.02
2023-01-28T03:38:43.230Z,176.70
2023-01-28T03:39:43.150Z,176.40
2023-01-28T03:40:43.103Z,176.16
2023-01-28T03:41:43.101Z,178.18
2023-01-28T03:42:43.073Z,176.13
2023-01-28T03:43:43.062Z,177.45
2023-01-28T03:44:42.993Z,177.70
2023-01-28T03:45:42.973Z,175.99
2023-01-28T03:46:42.966Z,176.73
2023-01-28T03:47:42.945Z,174.74
2023-01-28T03:48:42.906Z,174.87
2023-01-28T03:49:42.859Z,174.17
2023-01-28T03:50:42.840Z,176.74
2023-01-28T03:51:42.828Z,176.35
2023-01-28T03:52:42.779Z,176.39
2023-01-28T03:53:42.761Z,176.92
2023-01-28T03:54:42.726Z,175.16
2023-01-28T03:55:42.684Z,176.99
2023-01-28T03:56:42.667Z,178.09
2023-01-28T03:57:42.655Z,175.79
2023-01-28T03:58:42.656Z,175.85
2023-01-28T03:59:42.607Z,178.46
2023-01-28T04:00:42.575Z,173.32
2023-01-28T04:01:42.571Z,179.03
2023-01-28T04:02:42.687Z,177.80
2023-01-28T04:03:42.521Z,175.29
2023-01-28T04:04:42.500Z,176.37
2023-01-28T04:05:42.471Z,176.48
2023-01-28T04:06:42.492Z,176.02
2023-01-28T04:07:42.456Z,177.85
2023-01-28T04:08:42.517Z,177.16
2023-01-28T04:09:42.428Z,175.76
2023-01-28T04:10:42.420Z,175.97
2023-01-28T04:11:42.366Z,176.58
2023-01-28T04:12:42.338Z,177.95
2023-01-28T04:13:42.330Z,177.97
2023-01-28T04:14:42.364Z,177.78
2023-01-28T04:15:42.266Z,178.93
2023-01-28T04:16:42.264Z,176.59
2023-01-28T04:17:42.244Z,177.89
2023-01-28T04:18:42.222Z,176.96
2023-01-28T04:19:42.206Z,178.11
2023-01-28T04:20:42.192Z,175.43
2023-01-28T04:21:42.143Z,176.90
2023-01-28T04:22:42.122Z,178.09
2023-01-28T04:23:42.099Z,175.28
2023-01-28T04:24:42.118Z,174.21
2023-01-28T04:25:42.057Z,178.78
2023-01-28T04:26:42.071Z,179.03
2023-01-28T04:27:42.022Z,176.69
2023-01-28T04:28:41.982Z,178.64
2023-01-28T04:29:41.982Z,175.99
2023-01-28T04:30:41.966Z,178.14
2023-01-28T04:31:41.982Z,177.36
2023-01-28T04:32:41.952Z,176.42
2023-01-28T04:33:41.900Z,177.30
2023-01-28T04:34:41.885Z,178.63
2023-01-28T04:35:41.814Z,176.77
2023-01-28T04:36:41.799Z,177.43
2023-01-28T04:37:41.783Z,179.06
2023-01-28T04:38:41.788Z,177.35
2023-01-28T04:39:41.744Z,178.90
2023-01-28T04:40:41.725Z,177.71
2023-01-28T04:41:41.705Z,178.48
2023-01-28T04:42:41.662Z,177.15
2023-01-28T04:43:41.673Z,179.01
2023-01-28T04:44:41.636Z,176.20
2023-01-28T04:45:41.593Z,177.38
2023-01-28T04:46:41.604Z,176.44
2023-01-28T04:47:41.561Z,177.63
2023-01-28T04:48:41.531Z,174.88
2023-01-28T04:49:41.493Z,176.33
2023-01-28T04:50:41.468Z,179.56
2023-01-28T04:51:41.458Z,177.31
2023-01-28T04:52:41.407Z,175.70
2023-01-28T04:53:41.398Z,178.61
2023-01-28T04:54:41.378Z,178.11
2023-01-28T04:55:41.339Z,176.01
2023-01-28T04:56:41.336Z,177.98
2023-01-28T04:57:41.295Z,176.91
2023-01-28T04:58:41.296Z,178.85
2023-01-28T04:59:41.253Z,176.69
2023-01-28T05:00:41.235Z,179.15
2023-01-28T05:01:41.191Z,177.23
2023-01-28T05:02:41.156Z,177.48
2023-01-28T05:03:41.123Z,177.74
2023-01-28T05:04:41.127Z,179.72
2023-01-28T05:05:41.082Z,179.67
2023-01-28T05:06:41.050Z,177.22
2023-01-28T05:07:41.010Z,179.53
2023-01-28T05:08:41.012Z,177.79
2023-01-28T05:09:41.007Z,177.05
2023-01-28T05:10:40.951Z,177.13
2023-01-28T05:11:40.928Z,176.58
2023-01-28T05:12:40.886Z,177.65
2023-01-28T05:13:40.880Z,176.95
2023-01-28T05:14:40.838Z,178.18
2023-01-28T05:15:40.791Z,176.19
2023-01-28T05:16:40.770Z,178.21
2023-01-28T05:17:40.776Z,177.68
2023-01-28T05:18:40.747Z,178.43
2023-01-28T05:19:40.741Z,177.00
2023-01-28T05:21:40.685Z,177.09
2023-01-28T05:22:40.631Z,177.53
2023-01-28T05:23:40.598Z,178.71
2023-01-28T05:24:40.645Z,178.65
2023-01-28T05:25:40.573Z,178.45
2023-01-28T05:26:40.539Z,179.60
2023-01-28T05:27:40.522Z,177.21
2023-01-28T05:28:40.493Z,177.51
2023-01-28T05:29:40.477Z,177.78
2023-01-28T06:51:38.532Z,176.63
2023-01-28T06:52:38.487Z,177.19
2023-01-28T06:53:38.478Z,178.06
2023-01-28T06:54:38.445Z,176.59
2023-01-28T06:55:38.399Z,176.01
2023-01-28T06:56:38.409Z,177.08
2023-01-28T06:57:38.361Z,178.49
2023-01-28T06:58:38.322Z,180.61
2023-01-28T06:59:38.339Z,180.68
2023-01-28T07:00:38.288Z,178.95
2023-01-28T07:02:38.258Z,178.01
2023-01-28T07:03:38.248Z,178.99
2023-01-28T07:04:38.207Z,176.85
2023-01-28T07:05:38.164Z,177.66
2023-01-28T07:06:38.159Z,176.45
2023-01-28T07:07:40.158Z,176.59
2023-01-28T07:08:38.140Z,179.09
2023-01-28T07:09:38.105Z,178.16
2023-01-28T07:10:38.092Z,178.67
2023-01-28T07:11:38.090Z,177.50
2023-01-28T07:12:38.047Z,177.91
2023-01-28T08:25:36.938Z,177.71
2023-01-28T08:26:36.928Z,178.60
2023-01-28T08:27:36.918Z,178.83
2023-01-28T08:28:36.889Z,179.13
2023-01-28T08:29:36.852Z,179.47
2023-01-28T08:30:36.888Z,179.40
2023-01-28T08:31:36.894Z,179.58
2023-01-28T08:32:36.826Z,179.48
2023-01-28T08:33:36.821Z,177.60
2023-01-28T08:34:36.775Z,177.66
2023-01-28T08:35:36.758Z,181.12
2023-01-28T08:36:36.735Z,178.49
2023-01-28T08:37:36.699Z,179.95
2023-01-28T08:38:36.705Z,177.42
2023-01-28T08:39:36.675Z,179.65
2023-01-28T08:40:36.669Z,180.24
2023-01-28T08:41:36.667Z,179.07
2023-01-28T08:42:36.674Z,180.86
2023-01-28T08:43:36.658Z,180.57
2023-01-28T08:44:36.607Z,181.94
2023-01-28T08:45:36.601Z,178.80
2023-01-28T08:46:37.569Z,180.00
2023-01-28T08:47:36.605Z,178.82
2023-01-28T08:48:36.536Z,179.88
2023-01-28T08:49:36.515Z,180.09
2023-01-28T08:50:36.482Z,178.90
2023-01-28T08:51:36.476Z,180.30
2023-01-28T08:52:36.460Z,179.47
2023-01-28T08:53:36.465Z,179.07
2023-01-28T08:54:36.451Z,178.09
2023-01-28T08:55:36.408Z,181.20
2023-01-28T08:56:36.409Z,179.48
2023-01-28T08:57:36.392Z,178.24
2023-01-28T08:58:36.376Z,180.90
2023-01-28T08:59:36.376Z,178.55
2023-01-28T09:00:36.342Z,180.82
2023-01-28T09:01:36.371Z,178.71
2023-01-28T09:02:36.344Z,178.81
2023-01-28T09:03:36.389Z,179.78
2023-01-28T09:04:36.258Z,180.47
2023-01-28T09:05:36.260Z,178.27
2023-01-28T09:06:36.230Z,180.05
2023-01-28T09:07:36.220Z,180.69
2023-01-28T09:08:36.230Z,180.10
2023-01-28T09:09:36.192Z,181.33
2023-01-28T09:10:36.181Z,179.14
2023-01-28T09:11:36.189Z,178.50
2023-01-28T09:12:36.187Z,179.43
2023-01-28T09:13:36.165Z,179.84
2023-01-28T09:14:36.156Z,178.10
2023-01-28T09:15:36.138Z,177.09
2023-01-28T09:16:36.123Z,179.05
2023-01-28T09:17:36.120Z,182.06
2023-01-28T09:18:36.119Z,181.29
2023-01-28T09:19:36.104Z,180.93
2023-01-28T09:20:36.047Z,181.28
2023-01-28T09:21:36.069Z,176.08
2023-01-28T09:22:36.048Z,177.85
2023-01-28T09:23:36.060Z,180.66
2023-01-28T09:24:38.633Z,178.89
2023-01-28T09:25:36.043Z,179.15
2023-01-28T09:26:35.990Z,179.69
2023-01-28T09:27:35.985Z,180.34
2023-01-28T09:28:35.971Z,179.36
2023-01-28T09:29:35.957Z,179.63
2023-01-28T09:30:37.517Z,183.72
2023-01-28T09:31:35.932Z,182.92
2023-01-28T09:32:35.915Z,181.74
2023-01-28T09:33:35.882Z,181.25
2023-01-28T09:34:35.847Z,180.42
2023-01-28T09:35:35.824Z,181.94
2023-01-28T09:36:35.848Z,180.21
2023-01-28T09:37:35.801Z,180.33
2023-01-28T09:38:35.801Z,178.88
2023-01-28T09:39:35.750Z,179.87
2023-01-28T09:40:35.734Z,180.67
2023-01-28T09:41:35.731Z,182.39
2023-01-28T09:42:35.721Z,185.93
2023-01-28T09:43:35.723Z,180.20
2023-01-28T09:44:35.743Z,180.70
2023-01-28T09:45:35.664Z,181.43
2023-01-28T09:46:35.713Z,180.41
2023-01-28T09:47:35.644Z,181.50
2023-01-28T09:48:35.614Z,182.55
2023-01-28T09:49:35.618Z,181.47
2023-01-28T09:50:35.576Z,184.24
2023-01-28T09:51:35.597Z,183.92
2023-01-28T09:52:35.531Z,184.59
2023-01-28T09:53:35.556Z,183.54
2023-01-28T09:54:35.519Z,183.96
2023-01-28T09:55:35.491Z,181.39
2023-01-28T09:56:35.493Z,184.33
2023-01-28T09:57:35.465Z,184.80
2023-01-28T09:58:35.459Z,183.20
2023-01-28T09:59:35.431Z,183.84
2023-01-28T10:00:35.440Z,182.17
2023-01-28T10:01:35.356Z,186.73
2023-01-28T10:02:35.420Z,184.99
2023-01-28T10:03:35.340Z,185.03
2023-01-28T10:04:35.306Z,182.50
2023-01-28T10:05:35.263Z,181.96
2023-01-28T10:06:35.210Z,185.07
2023-01-28T10:07:35.219Z,183.88
2023-01-28T10:08:35.181Z,188.03
2023-01-28T10:09:35.189Z,184.39
2023-01-28T10:10:35.147Z,182.91
2023-01-28T10:11:35.116Z,184.19
2023-01-28T10:12:35.099Z,185.32
2023-01-28T10:13:35.104Z,184.18
2023-01-28T10:14:35.059Z,183.38
2023-01-28T10:15:35.028Z,183.02
2023-01-28T10:16:35.024Z,184.79
2023-01-28T10:17:35.008Z,182.34
2023-01-28T10:18:34.979Z,177.98
2023-01-28T10:19:34.942Z,181.92
2023-01-28T10:20:34.911Z,183.15
2023-01-28T10:21:34.894Z,183.37
2023-01-28T10:28:34.745Z,183.73
2023-01-28T10:29:34.700Z,178.05
2023-01-28T10:30:34.701Z,185.96
2023-01-28T11:53:32.272Z,206.73
2023-01-28T14:21:26.514Z,163.50
2023-01-28T14:27:26.309Z,163.77
2023-01-28T14:28:26.303Z,164.03
2023-01-28T14:29:26.254Z,163.41
2023-01-28T14:30:26.245Z,162.72
2023-01-28T14:31:26.266Z,165.41
2023-01-28T14:32:26.207Z,163.04
2023-01-28T14:33:26.136Z,163.15
2023-01-28T14:34:26.092Z,164.51
2023-01-28T14:35:26.051Z,161.30
2023-01-28T14:36:26.017Z,163.00
2023-01-28T14:37:26.000Z,162.15
2023-01-28T14:38:25.975Z,162.38
2023-01-28T14:39:27.265Z,163.19
2023-01-28T14:40:25.899Z,163.40
2023-01-28T14:41:25.872Z,162.33
2023-01-28T14:42:25.842Z,162.19
2023-01-28T14:43:25.843Z,163.16
2023-01-28T14:44:25.790Z,164.23
2023-01-28T14:45:25.754Z,161.89
2023-01-28T14:46:25.760Z,162.88
2023-01-28T14:48:25.697Z,163.31
2023-01-28T14:49:25.631Z,162.41
2023-01-28T14:50:25.626Z,162.34
2023-01-28T14:51:25.588Z,161.36
2023-01-28T14:52:25.533Z,162.63
2023-01-28T14:53:25.550Z,159.72
2023-01-28T14:54:25.495Z,163.54
2023-01-28T15:49:27.020Z,159.14
2023-01-28T15:50:26.997Z,159.33
2023-01-28T15:51:27.041Z,164.58
2023-01-28T15:52:27.051Z,156.12
2023-01-28T15:53:27.099Z,168.39
2023-01-28T15:54:27.129Z,157.81
2023-01-28T15:55:27.171Z,163.99
2023-01-28T15:56:27.166Z,159.70
2023-01-28T15:57:27.206Z,164.53
2023-01-28T15:58:27.233Z,161.85
2023-01-28T15:59:27.244Z,157.69
2023-01-28T16:00:27.701Z,159.89
2023-01-28T16:01:27.228Z,160.06
2023-01-28T16:02:27.210Z,154.64
2023-01-28T16:03:27.250Z,157.34
2023-01-28T16:04:27.213Z,157.27
2023-01-28T16:05:27.700Z,162.68
2023-01-28T16:06:27.180Z,162.78
2023-01-28T16:07:27.147Z,163.36
2023-01-28T16:08:27.110Z,163.07
2023-01-28T16:09:27.073Z,161.80
2023-01-28T16:10:27.093Z,160.48
2023-01-28T16:11:27.029Z,155.54
2023-01-28T16:12:26.994Z,164.79
2023-01-28T16:13:27.024Z,163.40
2023-01-28T16:14:27.035Z,164.62
2023-01-28T16:15:27.073Z,156.72
2023-01-28T16:16:27.167Z,164.19
2023-01-28T16:17:27.144Z,163.08
2023-01-28T16:18:27.195Z,160.90
2023-01-28T16:19:27.222Z,156.79
2023-01-28T16:20:28.181Z,163.58
2023-01-28T16:21:28.181Z,159.19
2023-01-28T16:22:27.209Z,159.80
2023-01-28T16:23:27.156Z,160.05
2023-01-28T16:24:27.219Z,159.83
2023-01-28T16:25:27.120Z,162.07
2023-01-28T16:26:27.078Z,155.41
2023-01-28T16:27:27.040Z,162.96
2023-01-28T16:28:27.015Z,161.67
2023-01-28T16:29:28.360Z,156.02
2023-01-28T16:30:27.022Z,158.29
2023-01-28T16:31:27.093Z,165.27
2023-01-28T16:32:26.937Z,158.51
2023-01-28T16:33:26.946Z,167.46
2023-01-28T16:34:26.959Z,156.49
2023-01-28T16:35:29.844Z,160.92
2023-01-28T16:36:27.985Z,161.08
2023-01-28T16:39:26.904Z,158.77
2023-01-28T16:40:26.855Z,156.77
2023-01-28T16:41:26.801Z,157.65
2023-01-28T16:42:26.770Z,167.40
2023-01-28T16:43:26.727Z,158.54
2023-01-28T16:44:26.705Z,162.43
2023-01-28T16:45:26.670Z,167.48
2023-01-28T16:46:26.728Z,164.66
2023-01-28T16:47:26.622Z,156.62
2023-01-28T16:48:26.566Z,159.31
2023-01-28T16:49:26.544Z,159.64
2023-01-28T16:50:26.518Z,162.72
2023-01-28T16:51:26.505Z,163.59
2023-01-28T16:52:26.455Z,154.63
2023-01-28T16:53:28.596Z,163.28
2023-01-28T16:54:26.412Z,165.91
2023-01-28T16:55:26.400Z,158.17
2023-01-28T16:56:47.072Z,170.92
2023-01-28T16:57:27.375Z,170.72
2023-01-28T16:58:26.295Z,167.80
2023-01-28T16:59:26.278Z,161.75
2023-01-28T17:00:26.267Z,160.82
2023-01-28T17:01:26.226Z,164.02
2023-01-28T17:02:26.231Z,157.55
2023-01-28T17:03:26.244Z,161.54
2023-01-28T17:04:26.147Z,164.06
2023-01-28T17:05:26.116Z,158.58
2023-01-28T17:06:26.095Z,165.70
2023-01-28T17:07:26.057Z,160.17
2023-01-28T17:08:26.018Z,155.49
2023-01-28T17:09:26.035Z,160.55
2023-01-28T17:10:25.987Z,163.45
2023-01-28T17:11:25.958Z,165.73
2023-01-28T17:12:25.919Z,169.12
2023-01-28T17:13:25.869Z,155.58
2023-01-28T17:14:25.850Z,163.99
2023-01-28T17:15:25.813Z,163.83
2023-01-28T17:16:26.005Z,157.73
2023-01-28T17:17:25.761Z,163.92
2023-01-28T17:18:25.729Z,164.01
2023-01-28T17:19:25.711Z,160.66
2023-01-28T17:20:25.675Z,161.10
2023-01-28T17:21:25.659Z,164.90
2023-01-28T17:22:25.619Z,165.25
2023-01-28T17:23:25.621Z,163.15
2023-01-28T17:24:25.634Z,156.02
2023-01-28T17:25:25.557Z,156.95
2023-01-28T17:26:25.537Z,160.19
2023-01-28T17:27:25.516Z,157.06
2023-01-28T17:28:25.460Z,162.24
2023-01-28T17:29:25.483Z,158.39
2023-01-28T17:30:25.425Z,161.30
2023-01-28T17:31:25.455Z,162.14
2023-01-28T17:32:25.337Z,155.34
2023-01-28T17:33:25.335Z,161.20
2023-01-28T17:34:25.289Z,164.31
2023-01-28T17:35:25.267Z,158.05
2023-01-28T17:36:25.253Z,164.32
2023-01-28T17:37:25.219Z,161.41
2023-01-28T17:38:25.201Z,160.83
2023-01-28T17:39:25.158Z,162.23
2023-01-28T17:40:25.164Z,163.15
2023-01-28T17:41:25.133Z,165.70
2023-01-28T17:42:27.320Z,164.25
2023-01-28T17:43:25.047Z,170.41
2023-01-28T17:44:25.001Z,168.78
2023-01-28T17:45:24.964Z,152.64
2023-01-28T17:46:24.952Z,162.79
2023-01-28T17:47:24.904Z,165.87
2023-01-28T17:48:24.877Z,163.84
2023-01-28T17:49:24.849Z,166.64
2023-01-28T17:50:24.802Z,164.27
2023-01-28T17:51:24.830Z,163.60
2023-01-28T17:52:24.864Z,162.94
2023-01-28T17:53:24.862Z,162.72
2023-01-28T17:54:24.899Z,164.86
2023-01-28T17:55:24.975Z,158.70
2023-01-28T17:56:24.972Z,153.97
2023-01-28T17:57:25.011Z,160.96
2023-01-28T17:58:25.030Z,161.01
2023-01-28T17:59:25.864Z,168.88
2023-01-28T18:00:25.046Z,159.07
2023-01-28T18:01:25.124Z,167.64
2023-01-28T18:02:25.013Z,169.41
2023-01-28T18:03:24.946Z,164.26
2023-01-28T18:04:24.920Z,166.25
2023-01-28T18:05:24.872Z,162.82
2023-01-28T18:06:24.901Z,167.10
2023-01-28T18:07:24.918Z,163.61
2023-01-28T18:08:25.012Z,165.46
2023-01-28T18:09:25.003Z,163.78
2023-01-28T18:10:25.058Z,161.85
2023-01-28T18:11:25.065Z,159.54
2023-01-28T18:12:25.061Z,166.26
2023-01-28T18:13:25.125Z,162.35
2023-01-28T18:14:25.147Z,160.37
2023-01-28T18:15:25.168Z,168.25
2023-01-28T18:16:25.203Z,167.10
2023-01-28T18:17:25.281Z,165.28
2023-01-28T18:18:25.302Z,169.48
2023-01-28T18:19:25.296Z,161.93
2023-01-28T18:20:25.348Z,168.08
2023-01-28T18:21:25.402Z,169.94
2023-01-28T18:22:25.405Z,163.48
2023-01-28T18:23:25.427Z,166.05
2023-01-28T18:24:25.569Z,162.43
2023-01-28T18:25:25.509Z,168.62
2023-01-28T18:49:25.648Z,165.70
2023-01-28T18:50:25.623Z,168.91
2023-01-28T18:51:30.613Z,168.15
2023-01-28T18:52:26.640Z,167.10
2023-01-28T18:53:25.606Z,168.60
2023-01-28T18:54:25.541Z,168.35
2023-01-28T18:55:25.522Z,165.29
2023-01-28T18:56:25.523Z,167.20
2023-01-28T18:57:25.492Z,168.26
2023-01-28T18:58:25.475Z,169.38
2023-01-28T18:59:25.457Z,166.55
2023-01-28T19:00:25.425Z,169.57
2023-01-28T19:01:25.464Z,167.03
2023-01-28T19:02:25.445Z,166.99
2023-01-28T19:03:25.374Z,167.73
2023-01-28T19:04:25.365Z,170.02
2023-01-28T19:05:25.322Z,168.37
2023-01-28T19:06:25.285Z,167.23
2023-01-28T19:07:25.277Z,167.14
2023-01-28T19:08:26.211Z,168.80
2023-01-28T19:09:25.261Z,166.88
2023-01-28T19:10:25.208Z,168.06
2023-01-28T19:11:25.183Z,167.18
2023-01-28T19:12:25.180Z,162.24
2023-01-28T19:13:25.124Z,169.61
2023-01-28T19:14:25.161Z,169.68
2023-01-28T19:15:25.079Z,168.51
2023-01-28T19:16:25.161Z,164.57
2023-01-28T19:17:25.050Z,169.76
2023-01-28T19:18:25.021Z,166.88
2023-01-28T19:19:24.992Z,168.15
2023-01-28T19:20:24.962Z,168.25
2023-01-28T19:21:25.017Z,168.08
2023-01-28T19:22:24.910Z,168.62
2023-01-28T19:23:24.881Z,169.88
2023-01-28T19:24:24.917Z,167.35
2023-01-28T19:25:24.809Z,168.45
2023-01-28T19:26:24.802Z,163.19
2023-01-28T19:27:24.779Z,167.70
2023-01-28T19:28:24.742Z,168.23
2023-01-28T19:29:24.709Z,166.56
2023-01-28T19:30:24.724Z,170.59
2023-01-28T23:16:20.035Z,172.83
2023-01-28T23:17:20.061Z,170.89
2023-01-28T23:18:19.980Z,170.84
2023-01-28T23:19:19.969Z,171.34
2023-01-28T23:20:19.954Z,171.39
2023-01-28T23:21:19.906Z,171.66
2023-01-28T23:22:19.864Z,171.50
